Time;durP1;ratioP1;P1;durP2;ratioP2;P2;SDS_P1;SDS_P2;PMS_P1;PMS_P2;Temp;Humidity;BMP_temperature;BMP_pressure;BME280_temperature;BME280_humidity;BME280_pressure;Samples;Min_cycle;Max_cycle;Signal;HPM_P1;HPM_P2
2021/04/03 00:00:12;;;;;;;33.63;7.87;;;5.70;99.90;;;-143.32;96.87;55697.59;5078104;28;20428;-92
2021/04/03 00:05:43;;;;;;;29.37;8.23;;;5.60;99.90;;;-143.32;96.95;55719.84;5076974;28;20478;-92
2021/04/03 00:15:59;;;;;;;27.33;6.60;;;5.70;99.90;;;-143.32;96.94;55703.66;6156320;22;20402;-92
2021/04/03 00:22:51;;;;;;;19.40;6.20;;;5.70;99.90;;;-143.32;96.47;55689.50;5098400;28;20470;-93
2021/04/03 00:25:36;;;;;;;24.87;7.13;;;5.60;99.90;;;-143.32;96.22;55725.91;5096787;28;20462;-93
2021/04/03 00:28:09;;;;;;;36.30;6.90;;;5.70;99.90;;;-143.32;96.22;55701.66;5097495;28;20434;-94
2021/04/03 00:30:36;;;;;;;26.60;5.67;;;5.70;99.90;;;-143.32;95.73;55711.75;5091371;28;20407;-87
2021/04/03 00:33:06;;;;;;;26.30;6.30;;;5.70;99.90;;;-143.32;96.51;55695.56;5075302;28;20489;-89
2021/04/03 00:35:36;;;;;;;35.53;6.33;;;5.60;99.90;;;-143.32;96.27;55675.38;5074941;28;20559;-88
2021/04/03 00:38:08;;;;;;;25.17;5.90;;;5.60;99.90;;;-143.32;96.33;55701.66;5075181;28;20439;-89
2021/04/03 00:40:43;;;;;;;27.00;6.83;;;5.60;99.90;;;-143.32;96.58;55687.50;5092727;28;20512;-93
2021/04/03 00:43:15;;;;;;;26.20;5.87;;;5.60;99.90;;;-143.32;97.43;55699.63;5097331;28;20431;-93
2021/04/03 00:45:44;;;;;;;23.53;6.17;;;5.50;99.90;;;-143.32;97.77;55687.50;5094925;28;20466;-92
2021/04/03 00:48:14;;;;;;;21.53;5.90;;;5.40;99.90;;;-143.32;97.34;55665.25;5094553;28;20457;-92
2021/04/03 00:50:46;;;;;;;25.13;5.30;;;5.20;99.90;;;-143.32;96.09;55738.03;5095601;28;20408;-90
2021/04/03 00:53:22;;;;;;;16.03;4.43;;;5.40;99.90;;;-143.32;96.05;55691.53;5096709;28;20470;-91
2021/04/03 00:55:50;;;;;;;27.07;5.47;;;5.40;99.90;;;-143.32;95.52;55705.69;5095192;28;20427;-93
2021/04/03 00:58:18;;;;;;;24.13;5.83;;;5.40;99.90;;;-143.32;95.54;55721.84;5093195;28;20427;-93
2021/04/03 01:00:46;;;;;;;25.87;4.90;;;5.40;99.90;;;-143.32;95.65;55725.91;5092826;28;20427;-90
2021/04/03 01:03:14;;;;;;;19.20;5.10;;;5.30;99.90;;;-143.32;95.10;55713.78;5092545;28;20474;-94
2021/04/03 01:05:43;;;;;;;19.87;4.50;;;5.50;99.90;;;-143.32;94.11;55727.91;5093221;28;20485;-92
2021/04/03 01:08:22;;;;;;;22.90;4.60;;;5.40;99.90;;;-143.32;94.21;55725.91;5077023;28;20438;-92
2021/04/03 01:14:51;;;;;;;28.20;4.27;;;5.40;99.90;;;-143.32;93.18;55748.13;5095399;28;20458;-92
2021/04/03 01:17:33;;;;;;;25.63;4.67;;;5.40;99.90;;;-143.32;92.55;55752.16;5075708;28;20454;-91
2021/04/03 01:20:35;;;;;;;35.70;4.83;;;5.40;99.90;;;-143.32;92.37;55770.34;5094668;28;20423;-92
2021/04/03 01:23:52;;;;;;;18.60;3.90;;;5.40;99.90;;;-143.32;92.17;55727.91;5088852;28;20446;-92
2021/04/03 01:27:03;;;;;;;21.80;4.30;;;5.40;99.90;;;-143.32;92.17;55764.31;5031002;28;20478;-91
2021/04/03 01:30:11;;;;;;;18.97;3.77;;;5.40;99.90;;;-143.32;91.25;55748.13;5073061;28;20451;-93
2021/04/03 01:32:49;;;;;;;23.30;4.17;;;5.40;99.90;;;-143.32;90.75;55778.44;5075076;28;20518;-92
2021/04/03 01:35:24;;;;;;;22.10;4.40;;;5.50;99.90;;;-143.32;90.53;55792.59;5092599;28;20439;-92
2021/04/03 01:38:08;;;;;;;26.17;3.80;;;5.50;99.90;;;-143.32;89.71;55782.50;5092222;28;20465;-93
2021/04/03 01:40:39;;;;;;;22.20;3.70;;;5.50;99.90;;;-143.32;90.14;55780.47;5093682;28;20423;-94
2021/04/03 01:43:12;;;;;;;35.07;5.43;;;5.30;99.90;;;-143.32;89.86;55766.31;5094095;28;20440;-92
2021/04/03 01:45:52;;;;;;;22.87;5.03;;;5.40;99.90;;;-143.32;90.27;55814.81;5093872;28;20498;-93
2021/04/03 01:48:29;;;;;;;23.17;4.87;;;5.30;99.90;;;-143.32;89.78;55800.69;5074860;28;20458;-93
2021/04/03 01:50:57;;;;;;;25.50;5.30;;;5.30;99.90;;;-143.32;90.25;55772.38;5092305;28;20451;-93
2021/04/03 01:53:27;;;;;;;17.03;3.20;;;5.40;99.90;;;-143.32;90.30;55806.75;5092541;28;20431;-93
2021/04/03 01:56:08;;;;;;;28.77;3.87;;;5.40;99.90;;;-143.32;90.68;55766.31;5075041;28;20455;-93
2021/04/03 02:01:27;;;;;;;25.00;4.47;;;5.40;99.90;;;-143.32;89.94;55818.88;5074498;28;20466;-93
2021/04/03 02:04:03;;;;;;;18.63;4.80;;;5.40;99.90;;;-143.32;90.05;55788.56;5092877;28;20435;-95
2021/04/03 02:06:34;;;;;;;32.90;4.00;;;5.40;99.90;;;-143.32;90.59;55756.22;5076457;28;20513;-92
2021/04/03 02:09:15;;;;;;;26.37;3.53;;;5.30;99.90;;;-143.32;90.79;55788.56;5093615;28;20451;-92
2021/04/03 02:11:48;;;;;;;23.30;3.83;;;5.40;99.90;;;-143.32;89.03;55812.81;5094403;28;20451;-94
2021/04/03 02:17:08;;;;;;;20.80;3.57;;;5.50;99.90;;;-143.32;89.50;55831.00;5095738;28;20434;-92
2021/04/03 02:19:43;;;;;;;14.70;3.43;;;5.40;99.90;;;-143.32;89.57;55786.53;5097570;28;20422;-93
2021/04/03 02:22:54;;;;;;;26.13;4.63;;;5.30;99.90;;;-143.32;90.27;55826.94;5099801;28;20506;-93
2021/04/03 02:25:25;;;;;;;20.30;3.90;;;5.30;99.90;;;-143.32;90.58;55798.66;5097378;28;20478;-92
2021/04/03 02:27:58;;;;;;;20.47;3.80;;;5.20;99.90;;;-143.32;90.22;55794.63;5097446;28;20470;-94
2021/04/03 02:30:26;;;;;;;28.77;4.47;;;5.30;99.90;;;-143.32;89.42;55804.72;5097710;28;20494;-94
2021/04/03 02:33:11;;;;;;;22.70;4.93;;;5.30;99.90;;;-143.32;90.11;55796.63;5096619;28;20518;-92
2021/04/03 02:36:01;;;;;;;26.40;4.40;;;5.40;99.90;;;-143.32;90.39;55814.81;5099677;28;20485;-93
2021/04/03 02:49:43;;;;;;;20.30;3.90;;;5.20;99.90;;;-143.32;92.59;55780.47;5058509;28;20439;-92
2021/04/03 02:52:42;;;;;;;24.10;4.50;;;5.10;99.90;;;-143.32;92.81;55780.47;5058456;28;20452;-93
2021/04/03 02:55:45;;;;;;;18.80;4.00;;;5.10;99.90;;;-143.32;93.69;55772.38;5098674;28;20453;-94
2021/04/03 02:58:26;;;;;;;30.13;4.40;;;5.10;99.90;;;-143.32;93.67;55780.47;5097983;28;20454;-94
2021/04/03 03:01:02;;;;;;;16.80;4.30;;;4.90;99.90;;;-143.32;94.08;55768.34;5081940;28;20438;-93
2021/04/03 03:03:37;;;;;;;28.70;4.20;;;5.00;99.90;;;-143.32;93.77;55746.09;5075761;28;20435;-93
2021/04/03 03:06:17;;;;;;;33.10;4.77;;;5.10;99.90;;;-143.32;94.14;55770.34;5079903;28;20473;-93
2021/04/03 03:08:57;;;;;;;21.13;3.83;;;5.10;99.90;;;-143.32;94.09;55746.09;5097470;28;20439;-92
2021/04/03 03:11:32;;;;;;;28.27;5.43;;;5.00;99.90;;;-143.32;94.17;55752.16;5095687;28;20435;-93
2021/04/03 03:14:08;;;;;;;18.17;4.00;;;5.10;99.90;;;-143.32;94.36;55796.63;5096413;28;20447;-94
2021/04/03 03:16:36;;;;;;;30.03;4.77;;;5.10;99.90;;;-143.32;93.98;55772.38;5095398;28;20454;-94
2021/04/03 03:19:15;;;;;;;27.30;4.70;;;5.10;99.90;;;-143.32;94.09;55778.44;5096022;28;20430;-93
2021/04/03 03:22:05;;;;;;;17.63;3.97;;;5.10;99.90;;;-143.32;94.60;55764.31;5082096;28;20447;-94
2021/04/03 03:27:28;;;;;;;20.07;3.80;;;5.00;99.90;;;-143.32;94.04;55766.31;5097259;28;20485;-94
2021/04/03 03:30:02;;;;;;;35.40;4.30;;;5.00;99.90;;;-143.32;94.37;55740.03;5096235;28;20446;-93
2021/04/03 03:32:39;;;;;;;26.90;4.30;;;4.90;99.90;;;-143.32;94.24;55729.94;5095202;28;20462;-94
2021/04/03 03:35:15;;;;;;;22.90;4.67;;;5.00;99.90;;;-143.32;94.37;55758.22;5095004;28;20446;-95
2021/04/03 03:37:44;;;;;;;30.43;3.90;;;4.90;99.90;;;-143.32;94.68;55768.34;5078478;28;20503;-93
2021/04/03 03:40:17;;;;;;;26.10;3.63;;;4.90;99.90;;;-143.32;95.10;55792.59;5094214;28;20477;-93
2021/04/03 03:42:50;;;;;;;16.77;4.00;;;4.80;99.90;;;-143.32;95.08;55776.44;5096504;28;20444;-92
2021/04/03 03:45:24;;;;;;;15.50;3.83;;;4.90;99.90;;;-143.32;95.59;55756.22;5095366;28;20475;-92
2021/04/03 03:47:54;;;;;;;30.50;4.30;;;4.80;99.90;;;-143.32;95.75;55744.09;5096279;28;20450;-93
2021/04/03 03:50:32;;;;;;;23.93;4.17;;;4.90;99.90;;;-143.32;95.80;55750.16;5095019;28;20442;-94
2021/04/03 03:53:03;;;;;;;23.00;3.97;;;4.80;99.90;;;-143.32;95.77;55740.03;5096596;28;20438;-93
2021/04/03 03:55:41;;;;;;;25.63;4.43;;;4.80;99.90;;;-143.32;95.93;55752.16;5094068;28;20447;-94
2021/04/03 03:58:20;;;;;;;26.13;3.70;;;4.80;99.90;;;-143.32;95.67;55764.31;5095695;28;20537;-92
2021/04/03 04:00:57;;;;;;;27.43;4.80;;;4.90;99.90;;;-143.32;95.84;55774.41;5095890;28;20434;-94
2021/04/03 04:03:28;;;;;;;30.70;5.47;;;4.90;99.90;;;-143.32;95.80;55778.44;5094655;28;20446;-94
2021/04/03 04:05:58;;;;;;;31.73;4.50;;;4.90;99.90;;;-143.32;95.67;55772.38;5096256;28;20455;-92
2021/04/03 04:08:31;;;;;;;21.93;4.20;;;4.90;99.90;;;-143.32;96.12;55738.03;5094272;28;20431;-93
2021/04/03 04:11:02;;;;;;;29.83;4.67;;;4.80;99.90;;;-143.32;95.72;55748.13;5095384;28;20455;-93
2021/04/03 04:13:33;;;;;;;19.03;4.20;;;4.90;99.90;;;-143.32;95.76;55731.97;5095815;28;20458;-92
2021/04/03 04:16:03;;;;;;;21.73;4.00;;;4.80;99.90;;;-143.32;96.22;55764.31;5075604;28;20502;-92
2021/04/03 04:18:40;;;;;;;27.03;4.77;;;4.80;99.90;;;-143.32;96.21;55719.84;5092355;28;20443;-92
2021/04/03 04:21:07;;;;;;;16.07;3.83;;;4.80;99.90;;;-143.32;96.43;55760.25;5091895;28;20470;-92
2021/04/03 04:23:34;;;;;;;30.73;5.17;;;4.50;99.90;;;-143.32;96.83;55776.44;5084776;28;20921;-93
2021/04/03 04:26:02;;;;;;;23.47;4.60;;;4.80;99.90;;;-143.32;96.63;55766.31;5081268;28;20486;-93
2021/04/03 04:28:29;;;;;;;33.83;4.63;;;4.60;99.90;;;-143.32;96.88;55778.44;5080881;28;20447;-94
2021/04/03 04:30:56;;;;;;;26.53;4.70;;;4.60;99.90;;;-143.32;96.73;55760.25;5079656;28;20455;-90
2021/04/03 04:33:23;;;;;;;24.30;4.40;;;4.60;99.90;;;-143.32;96.88;55746.09;5081053;28;20457;-92
2021/04/03 04:35:50;;;;;;;31.70;4.73;;;4.70;99.90;;;-143.32;97.02;55752.16;5082076;28;20438;-91
2021/04/03 04:38:17;;;;;;;19.30;4.20;;;4.60;99.90;;;-143.32;97.22;55792.59;5078457;28;20454;-92
2021/04/03 04:40:43;;;;;;;26.63;4.60;;;4.50;99.90;;;-143.32;97.21;55772.38;5076658;28;20442;-93
2021/04/03 04:43:12;;;;;;;36.57;5.83;;;4.50;99.90;;;-143.32;97.63;55770.34;5075887;28;20435;-92
2021/04/03 04:45:38;;;;;;;22.10;4.83;;;4.50;99.90;;;-143.32;97.62;55754.19;5075902;28;20521;-92
2021/04/03 04:48:06;;;;;;;26.30;4.60;;;4.50;99.90;;;-143.32;97.40;55752.16;5077893;28;20447;-92
2021/04/03 04:50:33;;;;;;;24.03;4.40;;;4.50;99.90;;;-143.32;97.67;55786.53;5076312;28;20447;-92
2021/04/03 04:52:59;;;;;;;25.37;4.03;;;4.50;99.90;;;-143.32;97.74;55768.34;5076839;28;20435;-91
2021/04/03 04:55:26;;;;;;;28.33;4.63;;;4.50;99.90;;;-143.32;98.00;55758.22;5076491;28;20447;-91
2021/04/03 04:57:53;;;;;;;22.63;3.67;;;4.40;99.90;;;-143.32;97.63;55772.38;5076369;28;20490;-91
2021/04/03 05:00:22;;;;;;;15.57;4.00;;;4.50;99.90;;;-143.32;98.02;55784.50;5077227;28;20462;-92
2021/04/03 05:02:48;;;;;;;19.00;4.83;;;4.40;99.90;;;-143.32;98.35;55770.34;5075564;28;20439;-93
2021/04/03 05:05:15;;;;;;;35.17;3.97;;;4.20;99.90;;;-143.32;98.60;55798.66;5076161;28;20486;-93
2021/04/03 05:07:42;;;;;;;32.87;5.40;;;4.30;99.90;;;-143.32;99.05;55780.47;5077260;28;20439;-94
2021/04/03 05:10:10;;;;;;;30.83;6.37;;;4.30;99.90;;;-143.32;98.79;55742.06;5076761;28;20435;-93
2021/04/03 05:12:37;;;;;;;27.27;4.87;;;4.30;99.90;;;-143.32;99.03;55754.19;5079769;28;20473;-92
2021/04/03 05:15:06;;;;;;;25.20;4.63;;;4.40;99.90;;;-143.32;99.36;55764.31;5083027;28;20505;-91
2021/04/03 05:17:33;;;;;;;31.57;5.33;;;4.20;99.90;;;-143.32;99.54;55782.50;5085106;28;20463;-92
2021/04/03 05:20:00;;;;;;;29.90;4.50;;;4.10;99.90;;;-143.32;99.88;55748.13;5083314;28;20550;-91
2021/04/03 05:22:27;;;;;;;27.57;4.63;;;4.10;99.90;;;-143.32;99.75;55742.06;5079502;28;20454;-93
2021/04/03 05:28:35;;;;;;;22.07;4.20;;;4.10;99.90;;;-143.32;99.58;55750.16;5081171;28;20848;-93
2021/04/03 05:31:02;;;;;;;24.67;4.93;;;4.10;99.90;;;-143.32;99.86;55756.22;5087887;28;20462;-93
2021/04/03 05:33:30;;;;;;;29.67;4.57;;;4.10;99.90;;;-143.32;99.76;55740.03;5087405;28;20450;-92
2021/04/03 05:35:57;;;;;;;24.93;4.80;;;4.20;99.90;;;-143.32;100.00;55746.09;5081962;28;20443;-93
2021/04/03 05:38:23;;;;;;;23.87;4.67;;;4.20;99.90;;;-143.32;99.65;55776.44;5079193;28;20447;-92
2021/04/03 05:40:52;;;;;;;22.67;4.10;;;4.20;99.90;;;-143.32;99.51;55717.81;5080108;28;20447;-93
2021/04/03 05:47:00;;;;;;;29.00;4.60;;;4.30;99.90;;;-143.32;99.29;55756.22;5082642;28;20529;-93
2021/04/03 05:49:29;;;;;;;21.37;5.23;;;4.40;99.90;;;-143.32;99.16;55740.03;5082241;28;20467;-93
2021/04/03 05:51:57;;;;;;;23.50;4.50;;;4.50;99.90;;;-143.32;98.84;55744.09;5082267;28;20434;-92
2021/04/03 05:54:25;;;;;;;29.30;5.43;;;4.60;99.90;;;-143.32;98.54;55736.00;5085217;28;20528;-92
2021/04/03 05:56:57;;;;;;;32.20;5.30;;;4.70;99.90;;;-143.32;98.37;55727.91;5085662;28;20935;-93
2021/04/03 05:59:24;;;;;;;31.00;5.50;;;4.90;99.90;;;-143.32;98.15;55733.97;5082810;28;20471;-93
2021/04/03 06:02:02;;;;;;;;;;;;;;;;;;;;;
2021/04/03 06:04:31;;;;;;;18.47;4.17;;;4.80;99.90;;;-143.32;97.67;55727.91;5089591;28;20467;-93
2021/04/03 06:06:59;;;;;;;26.47;5.27;;;4.90;99.90;;;-143.32;97.45;55733.97;5070798;28;20477;-92
2021/04/03 06:09:26;;;;;;;23.50;4.80;;;5.00;99.90;;;-143.32;97.46;55738.03;5075817;28;20451;-89
2021/04/03 06:11:52;;;;;;;27.17;5.23;;;5.00;99.90;;;-143.32;97.39;55703.66;5063024;28;20451;-89
2021/04/03 06:14:19;;;;;;;39.23;6.07;;;5.00;99.90;;;-143.32;97.46;55754.19;5073519;28;20446;-89
2021/04/03 06:16:54;;;;;;;39.70;6.57;;;5.00;99.90;;;-143.32;97.85;55711.75;5073316;28;20446;-89
2021/04/03 06:19:25;;;;;;;36.73;5.53;;;5.00;99.90;;;-143.32;97.04;55717.81;5088879;28;20411;-93
2021/04/03 06:22:05;;;;;;;47.17;6.83;;;5.10;99.90;;;-143.32;97.07;55693.56;5088856;28;20898;-93
2021/04/03 06:24:35;;;;;;;43.53;5.83;;;5.20;99.90;;;-143.32;97.09;55701.66;5087212;28;20466;-93
2021/04/03 06:30:50;;;;;;;29.93;6.00;;;5.20;99.90;;;-143.32;96.33;55715.78;5092383;28;20434;-93
2021/04/03 06:33:24;;;;;;;28.93;5.87;;;5.40;99.90;;;-143.32;96.32;55746.09;5091731;28;20453;-93
2021/04/03 06:36:13;;;;;;;31.50;5.77;;;5.30;99.90;;;-143.32;96.52;55707.72;5094779;28;20450;-93
2021/04/03 06:39:26;;;;;;;32.27;5.57;;;5.40;99.90;;;-143.32;96.12;55752.16;5088693;28;20439;-93
2021/04/03 06:41:56;;;;;;;29.67;6.10;;;5.50;99.90;;;-143.32;95.30;55733.97;5090851;28;20454;-93
2021/04/03 06:44:24;;;;;;;31.43;5.67;;;5.60;99.90;;;-143.32;95.36;55729.94;5089737;28;20434;-93
2021/04/03 06:46:57;;;;;;;27.83;5.93;;;5.60;99.90;;;-143.32;93.95;55725.91;5090862;28;20853;-94
2021/04/03 06:49:26;;;;;;;29.10;6.00;;;5.80;99.90;;;-143.32;92.95;55693.56;5088962;28;20454;-92
2021/04/03 06:51:59;;;;;;;37.33;6.20;;;5.90;99.90;;;-143.32;92.66;55715.78;5089124;28;20474;-94
2021/04/03 06:58:09;;;;;;;46.50;6.80;;;6.00;99.90;;;-143.32;91.23;55760.25;5092264;28;20441;-93
2021/04/03 07:00:40;;;;;;;27.10;4.97;;;6.10;99.90;;;-143.32;90.11;55760.25;5090485;28;20948;-94
2021/04/03 07:03:17;;;;;;;35.03;7.10;;;6.20;99.90;;;-143.32;89.92;55762.28;5093457;28;20447;-92
2021/04/03 07:05:46;;;;;;;28.80;5.70;;;6.30;99.90;;;-143.32;90.06;55727.91;5086831;28;20490;-90
2021/04/03 07:08:13;;;;;;;35.73;6.43;;;6.20;99.90;;;-143.32;89.68;55798.66;5076597;28;20439;-89
2021/04/03 07:10:41;;;;;;;43.67;6.33;;;6.30;99.90;;;-143.32;90.10;55738.03;5076673;28;20504;-91
2021/04/03 07:13:11;;;;;;;23.80;5.10;;;6.30;99.90;;;-143.32;88.44;55750.16;5075987;28;20804;-90
2021/04/03 07:15:38;;;;;;;23.40;5.03;;;6.30;99.90;;;-143.32;87.99;55740.03;5076152;28;20998;-90
2021/04/03 07:18:08;;;;;;;32.30;5.70;;;6.40;99.90;;;-143.32;88.30;55756.22;5076014;28;20438;-90
2021/04/03 07:20:35;;;;;;;29.30;6.83;;;6.40;99.90;;;-143.32;88.53;55738.03;5076511;28;20431;-88
2021/04/03 07:23:05;;;;;;;26.83;5.90;;;6.50;99.90;;;-143.32;88.68;55760.25;5076069;28;20794;-88
2021/04/03 07:25:34;;;;;;;27.43;6.13;;;6.40;99.90;;;-143.32;87.66;55768.34;5076264;28;20547;-89
2021/04/03 07:28:02;;;;;;;30.17;6.27;;;6.50;99.90;;;-143.32;87.24;55766.31;5076241;28;20501;-87
2021/04/03 07:30:45;;;;;;;23.23;5.97;;;6.40;99.90;;;-143.32;87.20;55760.25;5075542;28;20471;-88
2021/04/03 07:33:16;;;;;;;27.30;5.40;;;6.50;99.90;;;-143.32;87.68;55766.31;5075952;28;20462;-88
2021/04/03 07:35:49;;;;;;;24.67;6.73;;;6.50;99.90;;;-143.32;88.18;55750.16;5076119;28;20481;-88
2021/04/03 07:38:20;;;;;;;25.83;6.00;;;6.50;99.90;;;-143.32;88.13;55770.34;5055752;28;20952;-89
2021/04/03 07:40:48;;;;;;;32.83;6.87;;;6.50;99.90;;;-143.32;87.94;55756.22;5073851;28;20439;-87
2021/04/03 07:43:41;;;;;;;34.70;6.70;;;6.60;99.90;;;-143.32;88.31;55756.22;5077913;28;20454;-88
2021/04/03 07:46:15;;;;;;;32.73;5.33;;;6.60;99.90;;;-143.32;88.36;55768.34;5075991;28;21043;-88
2021/04/03 07:48:48;;;;;;;25.83;5.97;;;6.80;99.90;;;-143.32;88.12;55740.03;5076315;28;20446;-88
2021/04/03 07:51:18;;;;;;;30.07;5.40;;;6.90;99.90;;;-143.32;87.56;55740.03;5080720;28;20428;-88
2021/04/03 07:53:56;;;;;;;26.60;6.17;;;7.00;99.90;;;-143.32;86.68;55733.97;5080807;28;20458;-89
2021/04/03 07:56:28;;;;;;;31.93;6.17;;;7.20;99.90;;;-143.32;86.75;55707.72;5080425;28;20465;-89
2021/04/03 07:59:08;;;;;;;;;;;;;;;;;;;;;
2021/04/03 08:01:46;;;;;;;31.73;6.10;;;7.50;99.90;;;-143.32;86.03;55742.06;5081669;28;20513;-89
2021/04/03 08:04:14;;;;;;;34.80;7.80;;;7.60;99.90;;;-143.32;86.36;55762.28;5081394;28;20471;-88
2021/04/03 08:06:44;;;;;;;40.43;7.33;;;7.50;99.90;;;-143.32;86.40;55713.78;5080093;28;20542;-88
2021/04/03 08:09:17;;;;;;;32.17;6.90;;;7.40;99.90;;;-143.32;87.79;55758.22;5078768;28;20502;-89
2021/04/03 08:11:47;;;;;;;28.70;6.47;;;7.30;99.90;;;-143.32;88.99;55703.66;5079922;28;20451;-89
2021/04/03 08:14:24;;;;;;;32.47;7.40;;;7.10;99.90;;;-143.32;88.10;55725.91;5079739;28;20446;-89
2021/04/03 08:16:52;;;;;;;34.57;6.63;;;7.30;99.90;;;-143.32;87.77;55746.09;5079063;28;20842;-89
2021/04/03 08:19:24;;;;;;;45.90;7.30;;;7.20;99.90;;;-143.32;88.20;55693.56;5080526;28;20462;-88
2021/04/03 08:21:51;;;;;;;29.87;6.77;;;7.40;99.90;;;-143.32;87.77;55717.81;5078055;28;20442;-88
2021/04/03 08:24:21;;;;;;;30.63;6.17;;;7.40;99.90;;;-143.32;87.56;55707.72;5080093;28;20435;-90
2021/04/03 08:26:51;;;;;;;33.47;7.10;;;7.40;99.90;;;-143.32;88.08;55727.91;5080392;28;20566;-88
2021/04/03 08:29:24;;;;;;;36.17;6.53;;;7.50;99.90;;;-143.32;88.11;55703.66;5079883;28;20542;-89
2021/04/03 08:31:55;;;;;;;30.47;6.53;;;7.40;99.90;;;-143.32;87.69;55713.78;5079106;28;20447;-88
2021/04/03 08:34:23;;;;;;;34.10;7.40;;;7.40;99.90;;;-143.32;88.12;55723.88;5079115;28;20451;-87
2021/04/03 08:36:56;;;;;;;32.40;7.50;;;7.30;99.90;;;-143.32;89.06;55695.56;5080641;28;20850;-88
2021/04/03 08:39:29;;;;;;;35.27;7.00;;;7.30;99.90;;;-143.32;89.46;55756.22;5081042;28;20489;-90
2021/04/03 08:41:58;;;;;;;26.57;6.50;;;7.20;99.90;;;-143.32;88.91;55703.66;5081204;28;20940;-92
2021/04/03 08:44:27;;;;;;;27.53;7.17;;;7.30;99.90;;;-143.32;88.80;55709.72;5080850;28;20945;-89
2021/04/03 08:47:02;;;;;;;36.97;7.67;;;7.50;99.90;;;-143.32;88.83;55699.63;5080451;28;20478;-91
2021/04/03 08:49:36;;;;;;;42.30;8.50;;;7.50;99.90;;;-143.32;89.03;55711.75;5080134;28;20458;-91
2021/04/03 08:52:05;;;;;;;34.30;8.00;;;7.50;99.90;;;-143.32;89.30;55729.94;5080687;28;20420;-88
2021/04/03 08:54:41;;;;;;;31.40;7.73;;;7.60;99.90;;;-143.32;88.26;55697.59;5079911;28;21004;-90
2021/04/03 08:57:36;;;;;;;;;;;;;;;;;;;;;
2021/04/03 09:00:07;;;;;;;42.87;8.30;;;7.60;99.90;;;-143.32;88.38;55709.72;5078592;28;20538;-89
2021/04/03 09:02:36;;;;;;;43.27;8.17;;;7.50;99.90;;;-143.32;88.84;55713.78;5078712;28;20454;-90
2021/04/03 09:05:04;;;;;;;39.70;8.07;;;7.70;99.90;;;-143.32;86.94;55713.78;5079011;28;20443;-91
2021/04/03 09:07:35;;;;;;;23.43;7.10;;;7.90;99.90;;;-143.32;86.68;55695.56;5079943;28;20442;-91
2021/04/03 09:10:16;;;;;;;29.13;7.23;;;8.00;99.90;;;-143.32;86.62;55691.53;5081383;28;20443;-91
2021/04/03 09:12:44;;;;;;;22.23;7.60;;;8.10;99.90;;;-143.32;85.92;55707.72;5078885;28;20458;-92
2021/04/03 09:15:34;;;;;;;43.10;8.53;;;8.10;99.90;;;-143.32;86.34;55709.72;5080069;28;20506;-91
2021/04/03 09:18:33;;;;;;;31.40;7.40;;;8.10;99.90;;;-143.32;86.24;55752.16;5080676;28;20435;-90
2021/04/03 09:21:02;;;;;;;30.47;7.40;;;8.10;99.90;;;-143.32;86.67;55733.97;5018789;28;20445;-91
2021/04/03 09:23:43;;;;;;;28.30;7.00;;;8.20;99.90;;;-143.32;86.24;55699.63;5021792;28;20545;-90
2021/04/03 09:26:10;;;;;;;25.50;8.07;;;8.40;99.90;;;-143.32;84.68;55721.84;5080070;28;20473;-91
2021/04/03 09:28:46;;;;;;;36.43;7.43;;;8.50;99.90;;;-143.32;84.85;55701.66;5081367;28;20499;-90
2021/04/03 09:39:20;;;;;;;32.47;7.70;;;8.60;99.90;;;-143.32;84.18;55657.19;4919675;29;20458;-90
2021/04/03 09:41:53;;;;;;;34.20;7.90;;;8.70;99.90;;;-143.32;83.50;55699.63;5032785;28;20481;-91
2021/04/03 09:44:57;;;;;;;30.30;6.60;;;9.20;99.90;;;-143.32;83.21;55689.50;5080257;28;20497;-90
2021/04/03 09:48:10;;;;;;;;;;;;;;;;;;;;;
2021/04/03 10:46:44;;;;;;;30.33;6.20;;;9.50;99.90;;;-143.32;77.36;55675.38;4864012;29;20510;-92
2021/04/03 10:53:31;;;;;;;25.80;7.07;;;9.80;99.90;;;-143.32;79.49;55717.81;4880815;29;20465;-92
2021/04/03 19:31:28;;;;;;;;;;;;;;;;;;;;;
2021/04/03 19:38:35;;;;;;;21.03;5.90;;;7.70;99.90;;;-143.32;81.32;55839.09;4973412;28;20522;-92
2021/04/03 20:07:15;;;;;;;31.50;7.50;;;6.90;99.90;;;-143.32;83.13;55873.44;4850145;29;21086;-91
2021/04/03 20:32:05;;;;;;;;;;;;;;;;;;;;;
2021/04/03 21:05:15;;;;;;;31.97;7.60;;;6.00;99.90;;;-143.32;85.45;55837.06;4925169;29;20469;-91
2021/04/03 21:16:09;;;;;;;29.47;6.73;;;5.80;99.90;;;-143.32;85.54;55867.38;4920618;29;20839;-91
2021/04/03 21:18:55;;;;;;;40.70;7.77;;;5.70;99.90;;;-143.32;85.74;55932.06;4931400;29;20544;-94
2021/04/03 21:21:29;;;;;;;33.10;6.90;;;5.80;99.90;;;-143.32;85.72;55899.72;5017984;28;20484;-93
2021/04/03 21:24:06;;;;;;;25.30;6.83;;;5.70;99.90;;;-143.32;86.16;55885.56;5021115;28;20461;-91
2021/04/03 21:26:45;;;;;;;29.53;7.13;;;5.80;99.90;;;-143.32;85.95;55889.59;5018916;28;20477;-92
2021/04/03 21:40:06;;;;;;;;;;;;;;;;;;;;;
2021/04/03 21:46:33;;;;;;;40.63;7.40;;;5.20;99.90;;;-143.32;88.12;55926.00;4868823;29;20472;-90
2021/04/03 22:46:11;;;;;;;;;;;;;;;;;;;;;
2021/04/03 22:49:32;;;;;;;24.40;6.90;;;4.70;99.90;;;-143.32;90.32;55903.75;4831992;29;20456;-95
2021/04/03 22:57:08;;;;;;;;;;;;;;;;;;;;;
2021/04/03 23:08:10;;;;;;;26.90;6.80;;;4.20;99.90;;;-143.32;92.52;55919.94;4905430;29;21017;-92
2021/04/03 23:13:46;;;;;;;33.73;6.87;;;4.00;99.90;;;-143.32;93.05;55938.13;4899961;29;20488;-93
2021/04/03 23:28:19;;;;;;;;;;;;;;;;;;;;;
2021/04/03 23:53:31;;;;;;;26.83;6.57;;;3.50;99.90;;;-143.32;95.12;55903.75;4876771;29;20438;-93
2021/04/03 23:56:15;;;;;;;24.20;6.30;;;3.50;99.90;;;-143.32;95.03;55899.72;4862717;29;20614;-93
2021/04/03 23:59:27;;;;;;;27.80;6.53;;;3.40;99.90;;;-143.32;95.53;55895.69;4897303;29;20949;-94
